createdAt,value
2022-08-03T00:04:34.073Z,16.08
2022-08-03T00:09:36.117Z,16.05
2022-08-03T00:14:37.727Z,16.04
2022-08-03T00:19:39.275Z,15.99
2022-08-03T00:24:40.821Z,16.01
2022-08-03T00:29:57.583Z,15.93
2022-08-03T00:35:07.963Z,15.82
2022-08-03T00:40:15.508Z,15.72
2022-08-03T00:45:22.628Z,15.63
2022-08-03T00:50:25.863Z,15.55
2022-08-03T00:55:27.834Z,15.56
2022-08-03T01:00:29.396Z,15.52
2022-08-03T01:05:40.148Z,15.44
2022-08-03T01:11:05.934Z,15.36
2022-08-03T01:16:35.787Z,15.34
2022-08-03T01:22:08.972Z,15.26
2022-08-03T01:27:18.800Z,15.27
2022-08-03T01:32:53.305Z,15.29
2022-08-03T01:38:18.900Z,15.31
2022-08-03T01:43:58.996Z,15.20
2022-08-03T01:48:48.890Z,15.30
2022-08-03T01:53:51.584Z,15.17
2022-08-03T01:58:54.787Z,15.32
2022-08-03T02:04:01.205Z,15.32
2022-08-03T02:09:04.185Z,15.23
2022-08-03T02:14:06.423Z,15.08
2022-08-03T02:19:08.526Z,14.99
2022-08-03T02:24:11.000Z,14.96
2022-08-03T02:29:20.482Z,14.91
2022-08-03T02:34:44.525Z,14.84
2022-08-03T02:39:50.657Z,14.74
2022-08-03T02:44:55.262Z,14.67
2022-08-03T02:49:58.308Z,14.66
2022-08-03T02:55:02.320Z,14.50
2022-08-03T03:00:05.446Z,14.47
2022-08-03T03:05:53.146Z,14.41
2022-08-03T03:10:30.579Z,14.34
2022-08-03T03:15:33.802Z,14.41
2022-08-03T03:20:37.526Z,14.40
2022-08-03T03:25:39.959Z,14.34
2022-08-03T03:30:42.845Z,14.20
2022-08-03T03:35:45.606Z,14.08
2022-08-03T03:40:47.638Z,14.05
2022-08-03T03:45:49.624Z,14.12
2022-08-03T03:50:51.367Z,14.13
2022-08-03T03:56:01.581Z,14.08
2022-08-03T04:01:04.389Z,14.07
2022-08-03T04:06:06.147Z,14.06
2022-08-03T04:11:30.483Z,14.06
2022-08-03T04:16:43.462Z,14.06
2022-08-03T04:21:50.663Z,14.13
2022-08-03T04:26:53.722Z,14.25
2022-08-03T04:31:58.675Z,14.29
2022-08-03T04:37:03.162Z,14.46
2022-08-03T04:42:08.921Z,14.52
2022-08-03T04:47:10.771Z,14.56
2022-08-03T04:52:12.404Z,14.70
2022-08-03T04:57:22.024Z,14.97
2022-08-03T05:02:24.989Z,15.27
2022-08-03T05:07:26.602Z,15.44
2022-08-03T05:12:37.785Z,16.02
2022-08-03T05:17:39.477Z,16.79
2022-08-03T05:22:41.121Z,17.17
2022-08-03T05:27:42.785Z,17.81
2022-08-03T05:32:44.381Z,18.72
2022-08-03T05:37:54.552Z,19.56
2022-08-03T05:42:56.619Z,20.12
2022-08-03T05:47:59.589Z,20.17
2022-08-03T05:53:01.160Z,20.69
2022-08-03T05:58:02.859Z,21.15
2022-08-03T06:03:04.455Z,21.27
2022-08-03T06:08:06.123Z,21.54
2022-08-03T06:13:07.804Z,22.00
2022-08-03T06:18:09.438Z,22.37
2022-08-03T06:23:16.040Z,22.66
2022-08-03T06:28:51.690Z,23.24
2022-08-03T06:34:31.653Z,23.46
2022-08-03T06:39:04.188Z,23.07
2022-08-03T06:44:05.775Z,23.04
2022-08-03T06:49:07.686Z,23.48
2022-08-03T06:54:09.350Z,23.14
2022-08-03T07:00:06.087Z,22.46
2022-08-03T07:04:32.490Z,22.29
2022-08-03T07:09:34.040Z,22.52
2022-08-03T07:14:35.594Z,23.46
2022-08-03T07:19:37.170Z,23.69
2022-08-03T07:24:38.789Z,24.30
2022-08-03T07:29:40.362Z,24.53
2022-08-03T07:34:41.973Z,23.97
2022-08-03T07:39:43.585Z,24.88
2022-08-03T07:44:45.365Z,24.91
2022-08-03T07:49:46.963Z,25.08
2022-08-03T07:54:48.567Z,25.43
2022-08-03T08:00:01.873Z,25.20
2022-08-03T08:05:13.587Z,24.92
2022-08-03T08:10:15.278Z,25.85
2022-08-03T08:15:16.992Z,26.27
2022-08-03T08:20:28.359Z,26.01
2022-08-03T08:25:32.638Z,26.21
2022-08-03T08:30:34.413Z,26.43
2022-08-03T08:35:36.865Z,26.78
2022-08-03T08:40:38.452Z,27.76
2022-08-03T08:45:41.548Z,27.95
2022-08-03T08:50:52.248Z,28.37
2022-08-03T08:56:00.295Z,28.09
2022-08-03T09:01:02.547Z,28.26
2022-08-03T09:06:04.216Z,28.36
2022-08-03T09:11:05.800Z,28.93
2022-08-03T09:16:11.370Z,29.05
2022-08-03T09:21:36.762Z,29.68
2022-08-03T09:26:38.508Z,30.95
2022-08-03T09:31:45.360Z,31.53
2022-08-03T09:36:49.615Z,31.80
2022-08-03T09:42:08.859Z,30.15
2022-08-03T09:47:12.203Z,30.60
2022-08-03T09:52:37.625Z,31.23
2022-08-03T09:57:41.370Z,30.56
2022-08-03T10:02:46.429Z,31.08
2022-08-03T10:07:49.358Z,31.29
2022-08-03T10:12:51.663Z,31.69
2022-08-03T10:17:53.364Z,31.47
2022-08-03T10:22:55.670Z,32.63
2022-08-03T10:28:02.011Z,31.63
2022-08-03T10:33:49.472Z,32.12
2022-08-03T10:38:43.350Z,31.44
2022-08-03T10:43:50.685Z,32.40
2022-08-03T10:48:52.886Z,32.71
2022-08-03T10:53:55.761Z,33.94
2022-08-03T10:58:58.150Z,33.16
2022-08-03T11:04:00.197Z,33.13
2022-08-03T11:09:10.897Z,33.56
2022-08-03T11:14:18.407Z,32.71
2022-08-03T11:19:21.135Z,33.05
2022-08-03T11:24:38.189Z,33.72
2022-08-03T11:29:56.553Z,35.00
2022-08-03T11:35:08.190Z,34.85
2022-08-03T11:40:36.640Z,32.63
2022-08-03T11:45:38.564Z,32.46
2022-08-03T11:50:40.466Z,32.86
2022-08-03T11:55:42.863Z,32.67
2022-08-03T12:00:44.578Z,33.09
2022-08-03T12:05:51.243Z,33.28
2022-08-03T12:10:56.691Z,33.02
2022-08-03T12:15:58.338Z,33.04
2022-08-03T12:21:07.990Z,33.47
2022-08-03T12:26:10.405Z,33.62
2022-08-03T12:31:12.060Z,33.85
2022-08-03T12:36:13.680Z,35.01
2022-08-03T12:41:15.325Z,34.99
2022-08-03T12:46:19.002Z,35.08
2022-08-03T12:51:20.667Z,34.55
2022-08-03T12:56:22.555Z,34.50
2022-08-03T13:01:24.417Z,34.41
2022-08-03T13:06:27.684Z,34.99
2022-08-03T13:11:55.876Z,34.76
2022-08-03T13:16:51.221Z,34.77
2022-08-03T13:21:53.651Z,35.96
2022-08-03T13:28:02.516Z,35.56
2022-08-03T13:32:27.782Z,35.60
2022-08-03T13:37:30.322Z,34.65
2022-08-03T13:42:33.548Z,34.56
2022-08-03T13:47:35.150Z,34.94
2022-08-03T13:52:36.911Z,34.95
2022-08-03T13:58:03.345Z,35.38
2022-08-03T14:03:06.664Z,34.56
2022-08-03T14:08:14.147Z,34.53
2022-08-03T14:13:17.679Z,34.62
2022-08-03T14:18:28.872Z,34.12
2022-08-03T14:23:37.023Z,34.38
2022-08-03T14:28:38.704Z,33.77
2022-08-03T14:33:40.538Z,33.83
2022-08-03T14:38:42.244Z,34.03
2022-08-03T14:44:01.509Z,34.29
2022-08-03T14:50:35.701Z,34.47
2022-08-03T14:54:25.888Z,34.28
2022-08-03T14:59:27.632Z,34.17
2022-08-03T15:04:49.200Z,33.13
2022-08-03T15:09:50.834Z,33.51
2022-08-03T15:14:52.448Z,33.89
2022-08-03T15:20:01.077Z,34.04
2022-08-03T15:26:04.088Z,34.84
2022-08-03T15:30:33.001Z,34.08
2022-08-03T15:35:35.553Z,34.00
2022-08-03T15:40:37.457Z,34.59
2022-08-03T15:45:39.084Z,33.68
2022-08-03T15:50:41.409Z,32.78
2022-08-03T15:55:45.411Z,32.68
2022-08-03T16:00:47.078Z,32.57
2022-08-03T16:05:48.684Z,33.19
2022-08-03T16:10:50.325Z,33.76
2022-08-03T16:15:53.850Z,34.07
2022-08-03T16:20:55.447Z,33.76
2022-08-03T16:25:57.647Z,33.16
2022-08-03T16:30:59.711Z,32.81
2022-08-03T16:36:01.422Z,32.34
2022-08-03T16:41:04.411Z,32.04
2022-08-03T16:46:06.000Z,31.93
2022-08-03T16:51:07.684Z,31.19
2022-08-03T16:56:10.680Z,30.93
2022-08-03T17:01:22.039Z,31.23
2022-08-03T17:06:26.963Z,31.16
2022-08-03T17:11:44.082Z,30.89
2022-08-03T17:16:52.617Z,31.11
2022-08-03T17:22:10.107Z,30.88
2022-08-03T17:28:42.107Z,30.49
2022-08-03T17:32:52.622Z,29.94
2022-08-03T17:38:03.806Z,29.56
2022-08-03T17:44:13.140Z,29.15
2022-08-03T17:48:32.177Z,29.03
2022-08-03T17:53:38.708Z,28.61
2022-08-03T17:58:55.310Z,28.48
2022-08-03T18:04:02.691Z,28.12
2022-08-03T18:10:04.653Z,27.81
2022-08-03T18:14:57.748Z,27.40
2022-08-03T18:20:10.695Z,27.06
2022-08-03T18:25:42.667Z,26.59
2022-08-03T18:30:54.038Z,26.21
2022-08-03T18:35:57.567Z,25.92
2022-08-03T18:40:59.245Z,25.63
2022-08-03T18:46:06.135Z,25.28
2022-08-03T18:51:28.728Z,24.98
2022-08-03T18:56:46.999Z,24.61
2022-08-03T19:02:00.769Z,24.14
2022-08-03T19:07:08.097Z,23.74
2022-08-03T19:12:30.716Z,23.33
2022-08-03T19:17:40.711Z,22.90
2022-08-03T19:22:45.913Z,22.55
2022-08-03T19:27:48.964Z,22.22
2022-08-03T19:32:51.139Z,21.88
2022-08-03T19:37:52.854Z,21.59
2022-08-03T19:43:01.098Z,21.29
2022-08-03T19:48:10.073Z,21.06
2022-08-03T19:53:13.064Z,20.84
2022-08-03T19:58:17.639Z,20.58
2022-08-03T20:03:42.898Z,20.39
2022-08-03T20:08:45.516Z,20.21
2022-08-03T20:13:54.718Z,20.03
2022-08-03T20:18:56.439Z,19.84
2022-08-03T20:24:02.910Z,19.65
2022-08-03T20:30:05.132Z,19.47
2022-08-03T20:34:53.012Z,19.30
2022-08-03T20:39:55.028Z,19.16
2022-08-03T20:45:05.233Z,19.06
2022-08-03T20:50:09.393Z,19.00
2022-08-03T20:55:14.719Z,18.95
2022-08-03T21:00:16.585Z,18.89
2022-08-03T21:05:21.235Z,18.84
2022-08-03T21:10:42.065Z,18.77
2022-08-03T21:16:12.454Z,18.66
2022-08-03T21:21:13.632Z,18.55
2022-08-03T21:26:16.755Z,18.54
2022-08-03T21:31:24.356Z,18.57
2022-08-03T21:36:30.625Z,18.47
2022-08-03T21:41:33.254Z,18.50
2022-08-03T21:46:37.889Z,18.60
2022-08-03T21:51:39.943Z,18.72
2022-08-03T21:56:44.685Z,18.64
2022-08-03T22:01:49.057Z,18.58
2022-08-03T22:06:53.059Z,18.58
2022-08-03T22:11:55.055Z,18.51
2022-08-03T22:16:56.867Z,18.39
2022-08-03T22:21:59.589Z,18.21
2022-08-03T22:27:02.380Z,18.07
2022-08-03T22:32:04.204Z,17.95
2022-08-03T22:37:06.767Z,17.82
2022-08-03T22:42:08.777Z,17.75
2022-08-03T22:47:10.680Z,17.66
2022-08-03T22:52:13.460Z,17.81
2022-08-03T22:57:16.089Z,17.76
2022-08-03T23:02:21.033Z,17.73
2022-08-03T23:07:44.157Z,17.60
2022-08-03T23:12:49.396Z,17.44
2022-08-03T23:17:57.570Z,17.28
2022-08-03T23:23:00.687Z,17.22
2022-08-03T23:28:04.960Z,17.25
2022-08-03T23:33:09.277Z,17.23
2022-08-03T23:38:22.716Z,17.18
2022-08-03T23:43:44.376Z,17.15
2022-08-03T23:48:48.274Z,17.13
2022-08-03T23:54:02.035Z,17.05
2022-08-03T23:59:44.986Z,17.10
